Airfield :
LOGIN :

Register | Disclaimer

   EN    FR    IT 

 










Legend :    VFR   Marginal VFR   IFR   Intensive IFR   Very Intensive IFR
Visi :
Ceiling :
>= 8 km
>= 3000ft
5 to 8 km
1000 to 3000 ft
1500m to 5 km
500 to 1000 ft
800 to 1500m
200 to 500 ft
< 800m
< 200 ft
Symbols :   Thunderstorms  Fog  Heavy snow  Heavy precipitations  Wind > 20 kt
SIGMETs :     Misc.  Thunderstorms  Icing  Turbulence  Mountain Waves  Volcanic Ashes







- Airport Elevation : 681 ft
- IATA code : LBA
- Download approach charts


EGNM - Leeds Bradford

CURRENT METAR :
  • 191120Z 30012KT 9999 -RA FEW008 BKN030 09/08 Q1015

EXPIRED METARs :
  • 191050Z 30010KT 9999 -RA SCT009 BKN033 09/08 Q1015
  • 191020Z 29010KT 9999 SCT008 BKN023 09/09 Q1015
  • 190950Z 29008KT 240V310 9999 -RA SCT005 BKN019 09/08 Q1015
  • 190920Z 28009KT 250V330 6000 -RA SCT002 BKN004 08/08 Q1015
  • 190850Z 27011KT 250V350 3000 -RADZ BR BKN002 08/08 Q1015

TAF AMD TAF EGNM
Valid from the 19 at 09:00 until the 20 at 06:00 UTC


190945Z 1909/2006 28007KT 2000 -RADZ BR BKN004
TEMPO 1909/2005 6000 NSW SCT008 BKN018
PROB30
TEMPO 1910/1920 9999
PROB30
TEMPO 2001/2005 0200 FG BKN000
ATIS : +44 113 250 9696 (x2489)
No reported NOTAMs for that airfield.



MET'MAP, your aeronautical weather chart ! - Copyright ORBIFLY December 2007 - Disclaimer

ORBIFLY MET'MAP TEAM :

Programming & Development : Alexandra Zaïnal
Concept & Development : Baudouin d'Aumeries
Co-Development & Prog : Marc-Olivier Méhu
Technical & hardware support : Manuel Goepfert

Contact : metmap@orbifly.com




SOURCES & CREDITS :

   NOAA